Terminal Aerodrome Forecast
Issued by NWS Melbourne, FL

Home | Current Version | Previous Version | Text Only | Print | Product List | Glossary On
Versions: 1 2 3 4 5 6 7 8 9 10 11 12 13 14
276
FTUS42 KMLB 220542
TAFDAB
TAF
KDAB 220542Z 2206/2306 36008KT P6SM VCSH FEW005 BKN015
      TEMPO 2206/2208 3SM SHRA BR BKN015
     FM220800 00000KT P6SM SCT005 BKN012
      TEMPO 2208/2211 4SM BR BKN005
     FM221300 01005KT P6SM FEW015 SCT035 BKN250
     FM221800 03010KT P6SM SCT035
     FM230300 04006KT P6SM SCT015 BKN030=

USA.gov is the U.S. government's official web portal to all federal, state and local government web resources and services.